Hlavní strana
METAR-TAF:

METAR-TAF

Letiště :

Fás, Maroko

zeměpisná šířka: 33-56N, zeměpisná délka: 004-59W, výška: 579 m

Aktuální stav počasí

Zpráva byla vytvořena před 19 minutami, v 00:00 UTC
Jižní vítr 8 kt
Teplota 7°C
Vlhkost vzduchu 87%
Tlak 1029 hPa
Viditelnost 10 km a více
Žádná oblačnost pod 1500 m, nevyskytují se cumulonimby.

METAR: GMFF 130000Z 19008KT CAVOK 07/05 Q1029 NOSIG

Čas: 01:19 (00:19 UTC)

Předpověď počasí

Zpráva byla vytvořena před 7 hodinami a 19 minutami, v 17:00 UTC
Předpověď platná od 12 v 18 UTC do 13 v 24 UTC
Jihojihozápadní vítr 4 kt
Viditelnost 10 km a více
Polojasno ve výšce 3000 ft
Změna
od 13 v 08 UTC do 13 v 10 UTC
Severoseverovýchodní vítr 10 kt

TAF: GMFF 121700Z 1218/1324 20004KT 9999 SCT030 BECMG 1308/1310 02010KT

Stav a předpovědi počasí z více než 4 000 letišť (zprávy METAR a TAF).

Červené a žluté tečky na mapě představují dostupné meteorologické stanice.

Když kurzor umístíte na tečku, zobrazí se název stanice.

Pak kliknutím zobrazíte stav a předpověď počasí.

Chcete-li změnit mapu, kliknutím na zelené tlačítko se znaménkem +mapu přiblížíte, kliknutím na zelené tlačítko se znaménkem – mapu oddálíte a kliknutím na zelené šipky přejdete na sousední mapy.


METAR-TAF: